ADDS METAR Data INFO
IDs: Format: Raw Decoded Include TAF

Data at: 0735 UTC 18 Oct 2017

KC07 180712Z AUTO 26009G15KT 230V290 10SM CLR 03/M13 A3040 RMK AO2
KC07 180653Z AUTO 26008G16KT 220V300 10SM CLR 03/M13 A3040 RMK AO2
KC07 180630Z AUTO 27008G15KT 230V320 10SM CLR 04/M13 A3040 RMK AO2
KC07 180612Z AUTO 27007G16KT 10SM CLR 04/M13 A3040 RMK AO2
KC07 180554Z AUTO 27007KT 220V300 10SM CLR 04/M13 A3041 RMK AO2
KC07 180530Z AUTO 28007G17KT 10SM CLR 04/M13 A3042 RMK AO2
KC07 180512Z AUTO 28008G16KT 230V300 10SM CLR 04/M13 A3042 RMK AO2
KC07 180454Z AUTO 28007KT 240V300 10SM CLR 04/M13 A3042 RMK AO2
KC07 180430Z AUTO 28007KT 10SM CLR 05/M13 A3042 RMK AO2
KC07 180412Z AUTO 29007KT 10SM CLR 05/M13 A3042 RMK AO2
KC07 180354Z AUTO 28006KT 10SM CLR 05/M13 A3043 RMK AO2
KC07 180330Z AUTO 29007KT 10SM CLR 05/M13 A3043 RMK AO2
KC07 180312Z AUTO 28006KT 220V300 10SM CLR 05/M13 A3042 RMK AO2
KC07 180254Z AUTO 28006KT 10SM CLR 05/M13 A3043 RMK AO2
KC07 180230Z AUTO 28006KT 10SM CLR 05/M13 A3044 RMK AO2
KC07 180212Z AUTO 28005KT 10SM CLR 05/M13 A3044 RMK AO2
KC07 180154Z AUTO 28005KT 10SM CLR 05/M13 A3044 RMK AO2
KC07 180130Z AUTO 28004KT 10SM CLR 05/M13 A3044 RMK AO2
KC07 180112Z AUTO 28006KT 10SM CLR 05/M13 A3044 RMK AO2
KC07 180054Z AUTO 28006KT 10SM CLR 05/M12 A3044 RMK AO2
KC07 180030Z AUTO 28006KT 10SM CLR 05/M12 A3044 RMK AO2
KC07 180012Z AUTO 27005KT 10SM CLR 06/M12 A3044 RMK AO2
KC07 172354Z AUTO 26005KT 10SM CLR 07/M12 A3044 RMK AO2
KC07 172330Z AUTO 26005KT 10SM CLR 08/M12 A3044 RMK AO2
KC07 172312Z AUTO 26007KT 230V290 10SM CLR 08/M12 A3045 RMK AO2
KC07 172248Z AUTO 25007KT 220V290 10SM CLR 08/M12 A3046 RMK AO2
KC07 172230Z AUTO 25006KT 10SM CLR 09/M11 A3046 RMK AO2
KC07 172212Z AUTO 25006KT 10SM CLR 09/M11 A3046 RMK AO2
KC07 172154Z AUTO 25007KT 220V290 10SM CLR 09/M13 A3046 RMK AO2
KC07 172130Z AUTO 24007KT 210V280 10SM CLR 10/M12 A3046 RMK AO2
KC07 172112Z AUTO 27006KT 10SM CLR 09/M13 A3046 RMK AO2
KC07 172054Z AUTO 25004KT 10SM CLR 09/M12 A3046 RMK AO2
KC07 172030Z AUTO 27007KT 230V310 10SM CLR 09/M12 A3046 RMK AO2
KC07 172012Z AUTO 25005KT 10SM CLR 09/M12 A3047 RMK AO2
KC07 171954Z AUTO 25006G17KT 210V280 10SM CLR 09/M13 A3047 RMK AO2
KC07 171930Z AUTO 27007G17KT 230V310 10SM CLR 08/M12 A3048 RMK AO2
KC07 171912Z AUTO 26006KT 10SM CLR 08/M12 A3049 RMK AO2
KC07 171854Z AUTO 27006KT 10SM CLR 08/M12 A3050 RMK AO2
KC07 171830Z AUTO 27007KT 10SM CLR 08/M13 A3050 RMK AO2
KC07 171812Z AUTO 26007G14KT 210V300 10SM CLR 07/M14 A3051 RMK AO2
KC07 171754Z AUTO 26005KT 10SM CLR 07/M14 A3051 RMK AO2
KC07 171730Z AUTO 29005KT 10SM CLR 07/M14 A3053 RMK AO2
KC07 171712Z AUTO 27006KT 10SM CLR 06/M16 A3053 RMK AO2
KC07 171654Z AUTO 24006KT 10SM CLR 06/M16 A3053 RMK AO2
KC07 171630Z AUTO 29005KT 10SM CLR 06/M16 A3054 RMK AO2
KC07 171612Z AUTO 26005KT 10SM CLR 05/M16 A3054 RMK AO2
KC07 171554Z AUTO 26003KT 10SM CLR 05/M16 A3054 RMK AO2
KC07 171530Z AUTO 25003KT 10SM CLR 05/M16 A3053 RMK AO2
KC07 171512Z AUTO 26003KT 10SM CLR 03/M17 A3053 RMK AO2
KC07 171454Z AUTO 00000KT 10SM CLR 03/M17 A3053 RMK AO2
KC07 171430Z AUTO 25003KT 10SM CLR 02/M17 A3053 RMK AO2
KC07 171412Z AUTO 26003KT 10SM CLR 02/M17 A3053 RMK AO2
KC07 171354Z AUTO 26004KT 10SM CLR 02/M18 A3052 RMK AO2
KC07 171330Z AUTO 29005KT 10SM CLR 02/M18 A3052 RMK AO2
KC07 171312Z AUTO 28004KT 10SM CLR 01/M18 A3051 RMK AO2
KC07 171254Z AUTO 28005KT 10SM CLR 02/M18 A3052 RMK AO2
KC07 171230Z AUTO 27004KT 10SM CLR 02/M18 A3052 RMK AO2
KC07 171212Z AUTO 29004KT 10SM CLR 02/M18 A3053 RMK AO2
KC07 171154Z AUTO 27005KT 10SM CLR 02/M18 A3053 RMK AO2
KC07 171130Z AUTO 28006KT 10SM CLR 02/M18 A3053 RMK AO2
KC07 171112Z AUTO 28005KT 10SM CLR 01/M17 A3053 RMK AO2
KC07 171054Z AUTO 30006KT 10SM CLR 01/M17 A3053 RMK AO2
KC07 171030Z AUTO 27007KT 10SM CLR 02/M17 A3053 RMK AO2
KC07 171012Z AUTO 27005KT 10SM CLR 02/M17 A3053 RMK AO2
KC07 170954Z AUTO 28006KT 10SM CLR 02/M17 A3053 RMK AO2
KC07 170930Z AUTO 30006KT 10SM CLR 02/M18 A3053 RMK AO2
KC07 170912Z AUTO 28005KT 10SM CLR 02/M18 A3053 RMK AO2
KC07 170854Z AUTO 28005KT 10SM CLR 02/M17 A3054 RMK AO2
KC07 170830Z AUTO 28005KT 10SM CLR 02/M17 A3054 RMK AO2
KC07 170812Z AUTO 28007KT 250V350 10SM CLR 02/M17 A3055 RMK AO2
KC07 170754Z AUTO 28007KT 250V330 10SM CLR 02/M17 A3055 RMK AO2
KC07 170730Z AUTO 27006KT 10SM CLR 02/M17 A3055 RMK AO2
KC07 170712Z AUTO 29006KT 10SM CLR 02/M17 A3055 RMK AO2
KC07 170654Z AUTO 28005KT 10SM CLR 03/M17 A3055 RMK AO2
KC07 170630Z AUTO 27005KT 10SM CLR 02/M16 A3055 RMK AO2
KC07 170612Z AUTO 27005KT 10SM CLR 02/M16 A3055 RMK AO2
KC07 170554Z AUTO 27006KT 10SM CLR 02/M16 A3055 RMK AO2
KC07 170530Z AUTO 26006KT 10SM CLR 02/M16 A3055 RMK AO2
KC07 170512Z AUTO 26006KT 10SM CLR 03/M16 A3055 RMK AO2
KC07 170454Z AUTO 27005KT 10SM CLR 03/M19 A3055 RMK AO2
KC07 170430Z AUTO 26006KT 10SM CLR 02/M20 A3056 RMK AO2
KC07 170412Z AUTO 27005KT 10SM CLR 02/M20 A3056 RMK AO2
KC07 170354Z AUTO 27007KT 250V350 10SM CLR 02/M20 A3055 RMK AO2
KC07 170330Z AUTO 27007KT 240V010 10SM CLR 02/M18 A3055 RMK AO2
KC07 170312Z AUTO 28005KT 10SM CLR 02/M18 A3055 RMK AO2
KC07 170254Z AUTO 28006KT 10SM CLR 03/M18 A3055 RMK AO2
KC07 170230Z AUTO 28006KT 10SM CLR 03/M18 A3055 RMK AO2
KC07 170212Z AUTO 29006KT 10SM CLR 03/M18 A3055 RMK AO2
KC07 170154Z AUTO 29007KT 250V320 10SM CLR 03/M19 A3055 RMK AO2
KC07 170130Z AUTO 31006KT 260V360 10SM CLR 03/M17 A3055 RMK AO2
KC07 170112Z AUTO 29007KT 240V360 10SM CLR 03/M18 A3055 RMK AO2
KC07 170054Z AUTO 30007KT 270V350 10SM CLR 03/M17 A3055 RMK AO2
KC07 170030Z AUTO 30006KT 10SM CLR 04/M16 A3055 RMK AO2
KC07 170012Z AUTO 28005KT 10SM CLR 05/M14 A3055 RMK AO2
KC07 162354Z AUTO 28007KT 230V300 10SM CLR 06/M14 A3055 RMK AO2
KC07 162330Z AUTO 26008G17KT 170V320 10SM CLR 06/M13 A3055 RMK AO2
KC07 162312Z AUTO 27008G19KT 10SM CLR 07/M13 A3055 RMK AO2
KC07 162254Z AUTO 27007G18KT 220V360 10SM CLR 07/M12 A3055 RMK AO2
KC07 162230Z AUTO 27009G23KT 220V300 10SM CLR 08/M13 A3055 RMK AO2
KC07 162212Z AUTO 28009G18KT 240V300 10SM CLR 08/M13 A3055 RMK AO2
KC07 162154Z AUTO 29010G18KT 210V360 10SM CLR 08/M13 A3055 RMK AO2
KC07 162130Z AUTO 27007G18KT 240V310 10SM CLR 08/M12 A3055 RMK AO2
KC07 162112Z AUTO 27007G17KT 210V290 10SM CLR 08/M12 A3055 RMK AO2
KC07 162054Z AUTO 29010G17KT 260V320 10SM CLR 08/M13 A3055 RMK AO2
KC07 162030Z AUTO 28009G17KT 220V340 10SM CLR 08/M12 A3055 RMK AO2
KC07 162012Z AUTO 28008G15KT 240V320 10SM CLR 08/M14 A3055 RMK AO2
KC07 161954Z AUTO 27009G20KT 250V310 10SM CLR 08/M12 A3055 RMK AO2